Data for 10/18/2017

Time Sea-Level Adjusted Pressure Absolute Pressure Temperature Relative Humidity Dew Point   
(mb) (inHg) (mb) (inHg) (C) (F) (%) (C) (F)
00:05 1017 30.03 846 24.98 12 53.7 22 -9 15.9
00:10 1017 30.03 846 24.98 12 53.6 23 -8.7 16.3
00:15 1017 30.03 846 24.98 11.6 52.8 25 -7.6 18.2
00:20 1017 30.03 846 24.98 10.7 51.2 26 -7.9 17.8
00:25 1017 30.03 846 24.98 10.4 50.8 27 -7.9 17.7
00:30 1017 30.03 846 24.98 10.3 50.6 27 -8 17.6
00:35 1017 30.03 846 24.98 10.2 50.4 27 -8.1 17.5
00:40 1017 30.03 846 24.98 10.2 50.3 27 -7.9 17.8
00:45 1017 30.03 847 25.01 9.9 49.8 29 -7.3 18.9
00:50 1018 30.06 847 25.01 9.8 49.6 28 -7.9 17.8
00:55 1018 30.06 847 25.01 10 49.9 27 -8.1 17.3
01:00 1018 30.06 847 25.01 10.4 50.7 26 -8.3 17.1
01:05 1018 30.06 847 25.01 10.5 50.9 25 -8.5 16.8
01:10 1018 30.06 847 25.01 10.7 51.3 24 -8.8 16.1
01:15 1018 30.06 847 25.01 10.9 51.7 24 -8.7 16.3
01:20 1018 30.06 847 25.01 10.8 51.5 25 -8.4 16.9
01:25 1018 30.06 847 25.01 10.8 51.5 25 -8.5 16.7
01:30 1018 30.06 847 25.01 11.4 52.6 23 -9 15.8
01:35 1018 30.06 847 25.01 12.3 54.1 21 -9.3 15.2
01:40 1018 30.06 847 25.01 12.8 55 21 -9.1 15.6
01:45 1018 30.06 847 25.01 12.8 55 21 -9.2 15.4
01:50 1018 30.06 847 25.01 12.7 54.9 21 -9.1 15.6
01:55 1018 30.06 847 25.01 12.7 54.9 21 -9.2 15.4
02:00 1018 30.06 847 25.01 12.9 55.2 20 -9.3 15.2
02:05 1018 30.06 847 25.01 13 55.3 20 -9.3 15.3
02:10 1018 30.06 847 25.01 13 55.3 20 -9.3 15.2
02:15 1018 30.06 847 25.01 12.9 55.3 20 -9.4 15.1
02:20 1018 30.06 847 25.01 12.9 55.2 20 -9.5 14.8
02:25 1018 30.06 847 25.01 12.9 55.3 20 -9.5 15
02:30 1018 30.06 847 25.01 12.9 55.2 21 -9.2 15.5
02:35 1018 30.06 847 25.01 12.6 54.8 20 -9.5 14.8
02:40 1018 30.06 848 25.04 12.7 54.9 20 -9.5 15
02:45 1018 30.06 848 25.04 12.7 54.8 21 -9.3 15.3
02:50 1018 30.06 848 25.04 12.6 54.6 21 -9.2 15.5
02:55 1019 30.09 848 25.04 12.4 54.2 21 -9.2 15.4
03:00 1018 30.06 848 25.04 12.4 54.3 21 -9.1 15.6
03:05 1018 30.06 847 25.01 12.3 54.2 21 -9.2 15.4
03:10 1018 30.06 847 25.01 12.3 54.1 21 -9.2 15.4
03:15 1018 30.06 847 25.01 12.2 54 21 -9.3 15.2
03:20 1018 30.06 847 25.01 12.3 54.2 21 -9.3 15.3
03:25 1018 30.06 847 25.01 12.3 54.1 21 -9.5 14.9
03:30 1018 30.06 847 25.01 12.2 53.9 21 -9.2 15.4
03:35 1018 30.06 847 25.01 11.8 53.3 22 -9 15.8
03:40 1018 30.06 847 25.01 11.5 52.7 22 -9.3 15.3
03:45 1018 30.06 847 25.01 11.4 52.4 23 -9.3 15.3
03:50 1018 30.06 847 25.01 11.3 52.3 22 -9.5 14.9
03:55 1018 30.06 847 25.01 11.5 52.7 22 -9.7 14.6
04:00 1018 30.06 847 25.01 11.6 53 22 -9.4 15
04:05 1018 30.06 847 25.01 11.5 52.6 23 -9.2 15.5
04:10 1018 30.06 847 25.01 11.2 52.2 22 -9.6 14.7
04:15 1018 30.06 847 25.01 11.2 52.2 23 -9.3 15.2
04:20 1018 30.06 847 25.01 11.2 52.2 23 -9.3 15.2
04:25 1018 30.06 847 25.01 11 51.8 23 -9.1 15.6
04:30 1018 30.06 847 25.01 10.8 51.4 24 -9.2 15.4
04:35 1018 30.06 847 25.01 10.3 50.6 25 -8.8 16.1
04:40 1018 30.06 847 25.01 9.9 49.9 25 -9.3 15.2
04:45 1018 30.06 847 25.01 9.9 49.7 24 -9.6 14.7
04:50 1018 30.06 847 25.01 9.9 49.9 23 -10.2 13.6
04:55 1018 30.06 847 25.01 10.4 50.8 22 -10.5 13.1
05:00 1018 30.06 847 25.01 10.8 51.4 22 -10.2 13.7
05:05 1018 30.06 847 25.01 10.6 51.2 22 -10.1 13.7
05:10 1018 30.06 847 25.01 10.5 50.8 23 -10 14.1
05:15 1018 30.06 847 25.01 10.2 50.4 23 -10 14
05:20 1018 30.06 847 25.01 9.8 49.6 24 -10 14
05:25 1018 30.06 847 25.01 9.7 49.4 23 -10.6 13
05:30 1018 30.06 847 25.01 10.1 50.1 22 -10.9 12.3
05:35 1018 30.06 847 25.01 10.5 51 21 -11.1 12.1
05:40 1018 30.06 847 25.01 10.8 51.4 21 -10.9 12.4
05:45 1018 30.06 847 25.01 10.8 51.4 21 -10.5 13.1
05:50 1018 30.06 847 25.01 10.6 51.2 22 -10 14
05:55 1018 30.06 847 25.01 10.2 50.3 24 -9.6 14.7
06:00 1018 30.06 847 25.01 9.5 49 26 -9.3 15.3
06:05 1018 30.06 847 25.01 9.1 48.4 26 -9.3 15.3
06:10 1018 30.06 847 25.01 9.3 48.8 25 -9.8 14.3
06:15 1018 30.06 847 25.01 9.4 49 25 -9.6 14.7
06:20 1018 30.06 847 25.01 9.3 48.7 26 -9.4 15.1
06:25 1018 30.06 847 25.01 8.9 48 27 -9.2 15.4
06:30 1018 30.06 847 25.01 9 48.2 26 -9.7 14.5
06:35 1018 30.06 847 25.01 9.4 48.9 25 -9.5 14.9
06:40 1018 30.06 847 25.01 9.3 48.7 27 -8.9 16.1
06:45 1018 30.06 847 25.01 9.1 48.5 25 -9.7 14.5
06:50 1018 30.06 848 25.04 9.5 49.1 25 -9.7 14.6
06:55 1018 30.06 848 25.04 9.6 49.2 25 -9.5 14.8
07:00 1018 30.06 848 25.04 9.6 49.2 26 -9.2 15.4
07:05 1018 30.06 848 25.04 9.5 49.1 26 -9.2 15.4
07:10 1019 30.09 848 25.04 9.4 48.8 26 -9.2 15.4
07:15 1019 30.09 848 25.04 9.2 48.6 26 -9.4 15.1
07:20 1019 30.09 848 25.04 9.2 48.6 28 -8.6 16.6
07:25 1019 30.09 848 25.04 9.3 48.8 26 -9.2 15.5
07:30 1019 30.09 848 25.04 9.4 48.9 26 -9 15.8
07:35 1019 30.09 848 25.04 9.7 49.5 25 -9.2 15.5
07:40 1019 30.09 848 25.04 9.6 49.4 28 -8.1 17.4
07:45 1019 30.09 848 25.04 9.5 49.1 27 -8.8 16.2
07:50 1019 30.09 848 25.04 9.7 49.5 27 -8.6 16.5
07:55 1019 30.09 848 25.04 9.9 49.7 26 -8.9 15.9
08:00 1019 30.09 848 25.04 10 50 27 -8.1 17.5
08:05 1019 30.09 848 25.04 10.5 50.9 26 -8 17.6
08:10 1019 30.09 849 25.07 10.5 51 26 -8.1 17.4
08:15 1019 30.09 849 25.07 10.8 51.5 26 -8 17.7
08:20 1019 30.09 849 25.07 11.4 52.5 24 -8.3 17.1
08:25 1019 30.09 849 25.07 12.1 53.8 23 -8.5 16.7
08:30 1019 30.09 849 25.07 12.2 54 25 -7.3 18.9
08:35 1019 30.09 849 25.07 11.3 52.4 25 -8 17.6
08:40 1019 30.09 849 25.07 11.4 52.6 24 -8.2 17.3
08:45 1019 30.09 849 25.07 11.7 53 24 -8.3 17.1
08:50 1019 30.09 849 25.07 11.8 53.2 24 -8.3 17.1
08:55 1019 30.09 849 25.07 12.3 54.1 22 -9 15.8
09:00 1019 30.09 849 25.07 12.9 55.3 21 -8.8 16.1
09:05 1019 30.09 849 25.07 12.8 55.1 22 -8.3 17
09:10 1019 30.09 848 25.04 12.6 54.7 21 -9.3 15.3
09:15 1019 30.09 848 25.04 13.2 55.8 20 -9 15.8
09:20 1019 30.09 848 25.04 13.6 56.4 20 -9.1 15.7
09:25 1019 30.09 848 25.04 14.1 57.4 20 -8.8 16.2
09:30 1019 30.09 848 25.04 14.8 58.7 19 -8.8 16.1
09:35 1019 30.09 848 25.04 15.2 59.3 18 -8.7 16.3
09:40 1019 30.09 848 25.04 15.1 59.3 18 -8.8 16.1
09:45 1019 30.09 848 25.04 15.5 59.9 18 -8.5 16.7
09:50 1019 30.09 848 25.04 15.7 60.3 17 -9.2 15.5
09:55 1019 30.09 848 25.04 15.8 60.5 18 -8.6 16.5
10:00 1019 30.09 848 25.04 15.7 60.2 16 -9.8 14.3
10:05 1019 30.09 848 25.04 15.6 60 18 -8.8 16.2
10:10 1019 30.09 848 25.04 15.9 60.6 17 -9.3 15.3
10:15 1019 30.09 848 25.04 16.4 61.6 15 -10 13.9
10:20 1019 30.09 848 25.04 16.6 61.8 15 -10.5 13.1
10:25 1019 30.09 848 25.04 16.4 61.5 15 -10.4 13.3
10:30 1019 30.09 848 25.04 16.7 62.1 15 -10.3 13.4
10:35 1018 30.06 848 25.04 17.2 63 14 -10.8 12.6
10:40 1019 30.09 848 25.04 17.4 63.3 14 -10.5 13.1
10:45 1018 30.06 848 25.04 17.1 62.8 14 -10.3 13.5
10:50 1018 30.06 848 25.04 16.6 61.8 15 -10.2 13.7
10:55 1018 30.06 848 25.04 16.8 62.2 14 -10.7 12.8
11:00 1018 30.06 848 25.04 16.9 62.4 15 -9.8 14.4
11:05 1018 30.06 848 25.04 17.4 63.3 14 -10.3 13.5
11:10 1018 30.06 848 25.04 17.9 64.3 14 -9.9 14.2
11:15 1018 30.06 848 25.04 18.5 65.3 14 -9.7 14.5
11:20 1018 30.06 848 25.04 18.6 65.4 13 -9.8 14.3
11:25 1018 30.06 848 25.04 18.5 65.4 14 -9.6 14.6
11:30 1018 30.06 848 25.04 18.7 65.7 12 -10.9 12.3
11:35 1018 30.06 848 25.04 18.1 64.5 11 -12.3 9.8
11:40 1018 30.06 848 25.04 18 64.4 12 -11.9 10.5
11:45 1018 30.06 848 25.04 18.2 64.8 12 -11.2 11.9
11:50 1018 30.06 847 25.01 18.1 64.6 12 -11.5 11.2
11:55 1018 30.06 847 25.01 17.9 64.2 12 -11.8 10.7
12:00 1018 30.06 847 25.01 17.7 63.9 12 -11.9 10.6
12:05 1018 30.06 847 25.01 17.9 64.2 11 -13.5 7.8
12:10 1018 30.06 847 25.01 18.5 65.3 9 -14.7 5.6
12:15 1018 30.06 847 25.01 19.3 66.7 9 -14.2 6.4
12:20 1018 30.06 847 25.01 19.8 67.7 8 -15 5.1
12:25 1018 30.06 847 25.01 19.9 67.7 8 -14.9 5.2
12:30 1018 30.06 847 25.01 19.8 67.6 9 -14 6.7
12:35 1018 30.06 847 25.01 19.6 67.3 9 -13.8 7.2
12:40 1018 30.06 847 25.01 19.6 67.2 10 -12.9 8.8
12:45 1017 30.03 847 25.01 19.8 67.6 10 -13.2 8.2
12:50 1017 30.03 847 25.01 19.4 66.9 10 -12.6 9.4
12:55 1017 30.03 847 25.01 19.2 66.5 11 -11.8 10.8
13:00 1017 30.03 847 25.01 19.1 66.4 11 -12 10.4
13:05 1017 30.03 847 25.01 19.2 66.6 11 -12.4 9.8
13:10 1017 30.03 847 25.01 19.5 67.1 11 -12 10.4
13:15 1017 30.03 846 24.98 19.5 67 11 -11.8 10.8
13:20 1017 30.03 846 24.98 19.7 67.5 11 -12.1 10.3
13:25 1017 30.03 846 24.98 19.7 67.5 11 -11.7 11
13:30 1017 30.03 846 24.98 19.6 67.3 11 -11.9 10.5
13:35 1017 30.03 846 24.98 19.5 67 11 -11.6 11.2
13:40 1017 30.03 846 24.98 19.3 66.8 12 -11 12.2
13:45 1017 30.03 846 24.98 19.3 66.7 12 -11 12.2
13:50 1017 30.03 846 24.98 19.2 66.6 11 -11.7 10.9
13:55 1017 30.03 846 24.98 19.3 66.7 12 -11 12.1
14:00 1017 30.03 846 24.98 19.5 67 12 -10.9 12.3
14:05 1017 30.03 846 24.98 19.5 67.1 12 -10.5 13
14:10 1017 30.03 846 24.98 19.5 67.1 12 -10.1 13.9
14:15 1017 30.03 846 24.98 19.6 67.3 12 -10.6 13
14:20 1017 30.03 846 24.98 19.9 67.8 12 -10.2 13.6
14:25 1017 30.03 846 24.98 20.2 68.3 12 -10.4 13.3
14:30 1017 30.03 846 24.98 20.5 68.9 12 -10.2 13.7
14:35 1017 30.03 846 24.98 20.4 68.7 12 -10.2 13.7
14:40 1017 30.03 846 24.98 20.7 69.2 12 -9.3 15.2
14:45 1017 30.03 846 24.98 20.7 69.3 12 -9.9 14.2
14:50 1017 30.03 846 24.98 20.3 68.5 13 -9.1 15.7
14:55 1017 30.03 846 24.98 20.6 69.1 13 -9.1 15.7
15:00 1017 30.03 846 24.98 20.2 68.4 13 -9.4 15.1
15:05 1017 30.03 846 24.98 19.8 67.6 13 -9.2 15.5
15:10 1017 30.03 846 24.98 19.8 67.6 13 -8.9 16
15:15 1017 30.03 846 24.98 19.4 66.9 14 -8.7 16.4
15:20 1017 30.03 846 24.98 19.2 66.5 14 -8.6 16.4
15:25 1017 30.03 846 24.98 18.9 66.1 15 -8.5 16.6
15:30 1017 30.03 846 24.98 18.9 66 15 -8.5 16.8
15:35 1017 30.03 846 24.98 18.9 66 14 -8.7 16.3
15:40 1017 30.03 846 24.98 18.7 65.7 15 -8.4 16.8
15:45 1017 30.03 846 24.98 18.9 66 15 -8.3 17
15:50 1017 30.03 846 24.98 19.2 66.5 15 -8.1 17.4
15:55 1017 30.03 846 24.98 19.2 66.6 15 -8.2 17.3
16:00 1016 30 846 24.98 19.3 66.8 15 -8.2 17.2
16:05 1016 30 846 24.98 19.4 67 15 -8 17.6
16:10 1016 30 846 24.98 19.6 67.2 15 -7.9 17.7
16:15 1016 30 846 24.98 19.4 66.8 15 -7.7 18.1
16:20 1016 30 845 24.95 19.1 66.3 16 -7.6 18.3
16:25 1016 30 845 24.95 19 66.2 15 -7.9 17.8
16:30 1016 30 845 24.95 19 66.2 17 -6.8 19.7
16:35 1016 30 845 24.95 18.6 65.5 17 -7.1 19.3
16:40 1016 30 845 24.95 18.4 65 17 -6.9 19.5
16:45 1016 30 845 24.95 18.3 64.9 17 -6.8 19.8
16:50 1016 30 845 24.95 18.3 64.9 18 -6.6 20.2
16:55 1016 30 845 24.95 18.2 64.8 18 -6.2 20.9
17:00 1016 30 845 24.95 18.1 64.5 19 -6 21.2
17:05 1016 30 845 24.95 17.7 63.8 19 -6.3 20.7
17:10 1016 30 845 24.95 17.6 63.6 19 -6.1 21
17:15 1016 30 845 24.95 17.5 63.5 19 -6 21.3
17:20 1016 30 845 24.95 17.2 63 20 -6.1 21
17:25 1016 30 845 24.95 17 62.6 20 -6.1 20.9
17:30 1016 30 845 24.95 16.9 62.5 20 -6.1 21
17:35 1016 30 845 24.95 16.8 62.2 20 -6.2 20.8
17:40 1016 30 845 24.95 16.6 61.9 21 -6 21.1
17:45 1016 30 845 24.95 16.4 61.5 21 -5.8 21.5
17:50 1016 30 845 24.95 16.1 61 22 -5.8 21.6
17:55 1016 30 845 24.95 15.6 60.1 23 -5.5 22
18:00 1016 30 845 24.95 15.3 59.6 23 -5.9 21.4
18:05 1016 30 845 24.95 15.3 59.5 22 -6.1 21
18:10 1016 30 845 24.95 15.2 59.4 22 -6.4 20.4
18:15 1016 30 845 24.95 15.4 59.7 22 -6.4 20.5
18:20 1016 30 845 24.95 15.3 59.6 22 -6.3 20.7
18:25 1016 30 845 24.95 15.2 59.4 22 -6.5 20.3
18:30 1016 30 845 24.95 15.1 59.1 22 -6.2 20.8
18:35 1016 30 845 24.95 14.8 58.6 23 -6 21.1
18:40 1016 30 845 24.95 14.6 58.2 24 -5.9 21.3
18:45 1016 30 845 24.95 14.5 58.1 24 -6 21.3
18:50 1016 30 845 24.95 14.4 57.8 24 -5.8 21.6
18:55 1016 30 845 24.95 14.2 57.5 25 -5.6 21.9
19:00 1016 30 845 24.95 14.1 57.3 26 -5 23
19:05 1016 30 845 24.95 14 57.2 25 -5.9 21.4
19:10 1016 30 845 24.95 13.9 57.1 24 -6 21.1
19:15 1016 30 845 24.95 14.3 57.7 23 -6.3 20.6
19:20 1016 30 845 24.95 14.8 58.6 23 -6.1 21.1
19:25 1016 30 845 24.95 14.9 58.8 24 -5.7 21.8
19:30 1016 30 845 24.95 14.5 58.2 25 -5.3 22.5
19:35 1016 30 845 24.95 13.8 56.9 27 -4.8 23.4
19:40 1016 30 845 24.95 13.6 56.4 28 -4.7 23.5
19:45 1016 30 845 24.95 13.5 56.3 26 -5.4 22.3
19:50 1016 30 845 24.95 14.2 57.5 24 -5.9 21.3
19:55 1016 30 845 24.95 14.9 58.8 23 -5.9 21.4
20:00 1016 30 845 24.95 15.1 59.2 23 -5.7 21.7
20:05 1016 30 845 24.95 15.1 59.2 23 -5.8 21.6
20:10 1016 30 845 24.95 15.1 59.2 23 -5.7 21.7
20:15 1016 30 845 24.95 15 59.1 24 -5.2 22.7
20:20 1016 30 845 24.95 14.6 58.2 25 -5.3 22.4
20:25 1016 30 845 24.95 14.4 58 25 -5.4 22.3
20:30 1016 30 845 24.95 14.5 58.1 25 -5.1 22.8
20:35 1016 30 845 24.95 14.3 57.7 25 -5.6 21.9
20:40 1016 30 845 24.95 14.6 58.4 24 -5.6 21.9
20:45 1016 30 845 24.95 14.6 58.4 25 -5.3 22.4
20:50 1015 29.97 845 24.95 14.5 58.1 25 -5.4 22.3
20:55 1015 29.97 845 24.95 14.3 57.8 25 -5.2 22.7
21:00 1015 29.97 845 24.95 14.2 57.6 26 -5.2 22.6
21:05 1015 29.97 845 24.95 14.2 57.6 26 -5 22.9
21:10 1015 29.97 845 24.95 14 57.1 27 -4.9 23.3
21:15 1015 29.97 845 24.95 14 57.2 26 -5 23.1
21:20 1015 29.97 845 24.95 14.1 57.4 26 -4.9 23.1
21:25 1015 29.97 845 24.95 14.4 57.9 26 -5.1 22.9
21:30 1015 29.97 845 24.95 14.5 58 26 -4.8 23.3
21:35 1015 29.97 845 24.95 14.3 57.7 26 -4.8 23.3
21:40 1015 29.97 845 24.95 14.3 57.8 25 -5.1 22.8
21:45 1015 29.97 845 24.95 14.5 58.1 26 -4.8 23.4
21:50 1015 29.97 845 24.95 14.5 58.2 25 -5 22.9
21:55 1015 29.97 845 24.95 14.8 58.6 24 -5.3 22.5
22:00 1015 29.97 845 24.95 15 58.9 24 -5.2 22.6
22:05 1015 29.97 845 24.95 15.2 59.3 23 -5.7 21.8
22:10 1015 29.97 845 24.95 15.4 59.8 23 -5.6 21.9
22:15 1015 29.97 845 24.95 15.5 59.9 23 -5.6 22
22:20 1015 29.97 845 24.95 15.4 59.8 23 -5.4 22.2
22:25 1015 29.97 844 24.92 15.2 59.4 24 -5.4 22.2
22:30 1015 29.97 844 24.92 15 59 24 -5.4 22.2
22:35 1015 29.97 844 24.92 15 58.9 24 -5.5 22.1
22:40 1015 29.97 844 24.92 14.7 58.5 24 -5.6 21.9
22:45 1015 29.97 844 24.92 14.7 58.5 24 -5.6 22
22:50 1015 29.97 844 24.92 14.7 58.5 24 -5.6 21.9
22:55 1015 29.97 844 24.92 14.7 58.5 24 -5.7 21.7
23:00 1015 29.97 844 24.92 14.8 58.6 23 -6 21.1
23:05 1015 29.97 844 24.92 15 58.9 23 -6.2 20.9
23:10 1015 29.97 844 24.92 15.4 59.6 22 -6.2 20.8
23:15 1015 29.97 844 24.92 15.5 59.8 22 -6.3 20.7
23:20 1015 29.97 844 24.92 15.5 59.9 22 -6 21.1
23:25 1015 29.97 844 24.92 14.8 58.6 25 -5.1 22.8
23:30 1015 29.97 844 24.92 14 57.2 25 -5.6 21.9
23:35 1015 29.97 844 24.92 13.9 57 25 -5.8 21.6
23:40 1015 29.97 844 24.92 13.9 57 25 -5.8 21.6
23:45 1015 29.97 844 24.92 13.9 57 25 -5.8 21.6
23:50 1015 29.97 844 24.92 13.9 57 25 -5.8 21.6
23:55 1015 29.97 844 24.92 13.9 57 25 -5.8 21.5
24:00 1015 29.97 844 24.92 13.9 56.9 25 -5.6 21.9